Airfield :
LOGIN :

Register | Disclaimer

   EN    FR    IT 

 










Legend :    VFR   Marginal VFR   IFR   Intensive IFR   Very Intensive IFR
Visi :
Ceiling :
>= 8 km
>= 3000ft
5 to 8 km
1000 to 3000 ft
1500m to 5 km
500 to 1000 ft
800 to 1500m
200 to 500 ft
< 800m
< 200 ft
Symbols :   Thunderstorms  Fog  Heavy snow  Heavy precipitations  Wind > 20 kt
SIGMETs :     Misc.  Thunderstorms  Icing  Turbulence  Mountain Waves  Volcanic Ashes






- Airport Elevation : 495 ft
- IATA code : BUD


LHBP - Budapest Ferihegy

CURRENT METAR :
  • 080930Z 11008KT CAVOK 03/01 Q1014 NOSIG

EXPIRED METARs :
  • 080900Z 11007KT CAVOK 03/01 Q1014 NOSIG
  • 080830Z 10005KT CAVOK 03/01 Q1014 NOSIG
  • 080815Z 09004KT CAVOK 03/01 Q1014 NOSIG
  • 080730Z 09001KT 7000 NSC M00/M01 Q1015 NOSIG
  • 080700Z VRB01KT 7000 NSC M01/M01 Q1014 NOSIG

TAF TAF LHBP
Valid from the 08 at 06:00 until the 09 at 06:00 UTC


080515Z 0806/0906 15003KT 5000 BR FEW004 BKN060
TEMPO 0806/0809 1400 BCFG BKN004 OVC060
BECMG 0807/0810 09005KT
BECMG 0809/0812 9999 NSW BKN040 OVC070
BECMG 0812/0815 BKN030 OVC060
TEMPO 0815/0822 5000 -RA -RASN BKN012 OVC040
BECMG 0822/0901 2000 BR BKN009 OVC033
TEMPO 0903/0906 0500 FG OVC002
TEMPO 0905/0906 -RA



MET'MAP, your aeronautical weather chart ! - Copyright ORBIFLY December 2007 - Disclaimer

ORBIFLY MET'MAP TEAM :

Programming & Development : Alexandra Zaïnal
Original concept : Baudouin d'Aumeries
Technical & hardware support : Manuel Goepfert
Assistance : Marc-Olivier Méhu




SOURCES & CREDITS :

   NOAA